createdAt,value
2023-01-20T00:00:33.500Z,30.88
2023-01-20T00:02:59.970Z,27.48
2023-01-20T00:05:26.587Z,30.38
2023-01-20T00:07:53.276Z,32.70
2023-01-20T00:10:19.797Z,27.65
2023-01-20T00:12:46.276Z,36.08
2023-01-20T00:15:13.032Z,32.08
2023-01-20T00:17:39.595Z,33.03
2023-01-20T00:20:06.543Z,43.95
2023-01-20T00:22:34.118Z,27.55
2023-01-20T00:25:00.825Z,31.40
2023-01-20T00:27:27.309Z,33.25
2023-01-20T00:29:53.842Z,38.42
2023-01-20T00:32:20.295Z,32.30
2023-01-20T00:34:46.710Z,37.28
2023-01-20T00:37:13.158Z,30.63
2023-01-20T00:39:39.626Z,37.92
2023-01-20T00:42:06.389Z,44.42
2023-01-20T00:44:32.833Z,41.58
2023-01-20T00:46:59.330Z,42.17
2023-01-20T00:49:25.744Z,44.30
2023-01-20T00:51:52.161Z,38.67
2023-01-20T00:54:18.639Z,40.55
2023-01-20T00:56:45.212Z,39.88
2023-01-20T00:59:11.848Z,38.60
2023-01-20T01:01:38.363Z,30.15
2023-01-20T01:04:05.122Z,45.55
2023-01-20T01:06:31.590Z,38.58
2023-01-20T01:08:58.099Z,38.15
2023-01-20T01:11:24.662Z,35.38
2023-01-20T01:13:51.262Z,34.92
2023-01-20T01:16:17.856Z,37.78
2023-01-20T01:18:44.446Z,34.53
2023-01-20T01:21:14.107Z,37.22
2023-01-20T01:23:40.720Z,36.75
2023-01-20T01:26:07.274Z,34.13
2023-01-20T01:28:33.734Z,35.53
2023-01-20T01:31:04.838Z,26.88
2023-01-20T01:33:32.674Z,33.78
2023-01-20T01:36:01.157Z,38.38
2023-01-20T01:38:29.074Z,29.17
2023-01-20T01:40:56.318Z,34.05
2023-01-20T01:43:26.847Z,34.03
2023-01-20T01:45:53.804Z,25.27
2023-01-20T01:48:33.686Z,38.38
2023-01-20T01:51:09.165Z,36.83
2023-01-20T01:53:48.627Z,32.17
2023-01-20T01:56:16.044Z,32.95
2023-01-20T01:58:46.422Z,27.30
2023-01-20T02:01:13.257Z,39.97
2023-01-20T02:03:54.617Z,28.25
2023-01-20T02:07:35.789Z,28.10
2023-01-20T02:10:02.373Z,32.88
2023-01-20T02:12:29.523Z,39.30
2023-01-20T02:14:59.492Z,42.33
2023-01-20T02:17:31.405Z,34.65
2023-01-20T02:20:16.220Z,37.60
2023-01-20T02:22:56.080Z,37.63
2023-01-20T02:25:22.430Z,30.80
2023-01-20T02:28:12.302Z,39.45
2023-01-20T02:31:09.860Z,35.72
2023-01-20T02:34:03.434Z,32.80
2023-01-20T02:36:45.458Z,35.28
2023-01-20T02:39:49.458Z,32.85
2023-01-20T02:42:32.051Z,34.97
2023-01-20T02:45:09.406Z,33.08
2023-01-20T02:47:43.232Z,38.25
2023-01-20T02:50:27.461Z,31.08
2023-01-20T02:52:57.755Z,35.17
2023-01-20T02:55:34.051Z,35.15
2023-01-20T02:58:08.320Z,33.03
2023-01-20T03:00:44.680Z,35.50
2023-01-20T03:03:15.375Z,38.17
2023-01-20T03:05:49.191Z,35.88
2023-01-20T03:08:18.045Z,38.65
2023-01-20T03:10:47.784Z,35.13
2023-01-20T03:13:19.160Z,37.08
2023-01-20T03:15:59.320Z,38.10
2023-01-20T03:18:29.339Z,40.95
2023-01-20T03:20:59.425Z,38.38
2023-01-20T03:23:30.407Z,39.40
2023-01-20T03:25:57.847Z,37.10
2023-01-20T03:28:24.372Z,38.25
2023-01-20T03:30:52.091Z,43.78
2023-01-20T03:33:18.949Z,42.22
2023-01-20T03:35:45.532Z,55.75
2023-01-20T03:38:12.217Z,42.60
2023-01-20T03:40:46.794Z,42.67
2023-01-20T03:43:42.420Z,43.45
2023-01-20T03:46:19.470Z,46.72
2023-01-20T03:48:53.916Z,49.97
2023-01-20T03:51:34.636Z,51.40
2023-01-20T03:54:06.961Z,42.93
2023-01-20T03:56:41.221Z,44.15
2023-01-20T03:59:11.188Z,44.92
2023-01-20T04:01:41.785Z,51.90
2023-01-20T04:04:11.926Z,45.60
2023-01-20T04:06:41.386Z,48.92
2023-01-20T04:09:12.905Z,40.58
2023-01-20T04:14:08.821Z,49.10
2023-01-20T04:16:36.888Z,51.80
2023-01-20T04:19:03.597Z,55.28
2023-01-20T04:21:35.293Z,54.50
2023-01-20T04:24:04.473Z,49.22
2023-01-20T04:26:30.936Z,58.28
2023-01-20T04:28:57.543Z,47.15
2023-01-20T04:31:30.536Z,51.55
2023-01-20T04:33:57.811Z,50.15
2023-01-20T04:36:24.284Z,52.28
2023-01-20T04:38:50.745Z,51.65
2023-01-20T04:41:17.211Z,51.60
2023-01-20T04:43:45.250Z,58.08
2023-01-20T04:46:12.581Z,47.03
2023-01-20T04:48:39.563Z,48.22
2023-01-20T04:51:07.631Z,54.90
2023-01-20T04:53:34.810Z,55.33
2023-01-20T04:56:01.349Z,48.28
2023-01-20T04:58:27.990Z,58.00
2023-01-20T05:00:54.560Z,60.72
2023-01-20T05:03:21.561Z,47.95
2023-01-20T05:05:55.024Z,59.10
2023-01-20T05:08:21.634Z,50.20
2023-01-20T05:10:48.241Z,49.67
2023-01-20T05:13:14.712Z,50.17
2023-01-20T05:15:42.610Z,56.90
2023-01-20T05:18:09.163Z,54.83
2023-01-20T05:20:35.694Z,63.92
2023-01-20T05:23:02.257Z,45.95
2023-01-20T05:25:28.732Z,53.63
2023-01-20T05:27:55.153Z,60.38
2023-01-20T05:30:21.732Z,51.80
2023-01-20T05:33:03.309Z,54.55
2023-01-20T05:35:29.789Z,53.67
2023-01-20T05:37:57.081Z,57.85
2023-01-20T05:40:23.680Z,51.35
2023-01-20T05:42:50.141Z,69.45
2023-01-20T05:45:17.347Z,52.97
2023-01-20T05:47:43.991Z,59.45
2023-01-20T05:50:11.282Z,49.17
2023-01-20T05:52:37.778Z,57.00
2023-01-20T05:55:05.243Z,59.33
2023-01-20T05:57:31.702Z,59.20
2023-01-20T05:59:58.188Z,51.25
2023-01-20T06:02:24.790Z,52.97
2023-01-20T06:04:51.255Z,46.00
2023-01-20T06:07:17.844Z,59.78
2023-01-20T06:09:44.451Z,49.65
2023-01-20T06:12:10.877Z,60.85
2023-01-20T06:14:37.456Z,48.45
2023-01-20T06:17:04.031Z,56.58
2023-01-20T06:19:30.645Z,44.80
2023-01-20T06:21:57.111Z,51.03
2023-01-20T06:24:23.540Z,61.30
2023-01-20T06:26:51.027Z,57.22
2023-01-20T06:29:17.759Z,50.60
2023-01-20T06:31:44.900Z,55.67
2023-01-20T06:34:12.312Z,62.90
2023-01-20T06:36:39.493Z,68.63
2023-01-20T06:39:06.205Z,61.58
2023-01-20T06:41:32.704Z,51.60
2023-01-20T06:43:59.211Z,55.33
2023-01-20T06:46:25.993Z,51.17
2023-01-20T06:48:52.660Z,62.88
2023-01-20T06:51:20.725Z,65.93
2023-01-20T06:53:47.698Z,61.10
2023-01-20T06:56:15.759Z,65.45
2023-01-20T06:58:42.366Z,65.30
2023-01-20T07:01:18.531Z,63.30
2023-01-20T07:03:45.222Z,61.08
2023-01-20T07:06:15.965Z,63.33
2023-01-20T07:08:45.973Z,46.33
2023-01-20T07:11:13.237Z,67.93
2023-01-20T07:13:39.885Z,67.00
2023-01-20T07:16:08.866Z,63.53
2023-01-20T07:18:37.685Z,72.47
2023-01-20T07:21:04.941Z,64.70
2023-01-20T07:23:33.603Z,67.72
2023-01-20T07:26:08.088Z,67.43
2023-01-20T07:28:35.408Z,61.78
2023-01-20T07:31:10.927Z,58.17
2023-01-20T07:33:38.006Z,55.50
2023-01-20T07:36:05.375Z,63.15
2023-01-20T07:38:32.357Z,66.93
2023-01-20T07:41:05.092Z,61.15
2023-01-20T07:43:32.455Z,65.47
2023-01-20T07:46:04.407Z,68.90
2023-01-20T07:48:32.490Z,67.70
2023-01-20T07:51:05.734Z,79.22
2023-01-20T07:53:34.433Z,88.32
2023-01-20T07:56:06.376Z,75.35
2023-01-20T07:58:33.542Z,77.82
2023-01-20T08:01:11.591Z,75.85
2023-01-20T08:03:38.395Z,77.60
2023-01-20T08:06:06.751Z,75.22
2023-01-20T08:08:34.087Z,79.53
2023-01-20T08:11:01.402Z,95.45
2023-01-20T08:13:32.050Z,78.57
2023-01-20T08:16:04.034Z,67.37
2023-01-20T08:18:32.195Z,77.25
2023-01-20T08:20:58.645Z,76.80
2023-01-20T08:23:25.597Z,83.00
2023-01-20T08:26:00.092Z,85.75
2023-01-20T08:28:27.092Z,107.50
2023-01-20T08:30:54.136Z,82.65
2023-01-20T08:33:21.052Z,73.18
2023-01-20T08:35:47.919Z,89.20
2023-01-20T08:38:14.646Z,82.57
2023-01-20T08:40:43.218Z,80.20
2023-01-20T08:43:09.902Z,85.35
2023-01-20T08:45:36.471Z,82.70
2023-01-20T08:48:02.996Z,73.15
2023-01-20T08:50:29.518Z,85.15
2023-01-20T08:52:55.964Z,75.90
2023-01-20T08:55:22.513Z,84.35
2023-01-20T08:57:49.017Z,77.30
2023-01-20T09:00:16.301Z,79.22
2023-01-20T09:02:42.823Z,75.65
2023-01-20T09:05:09.756Z,73.57
2023-01-20T09:07:36.314Z,71.03
2023-01-20T09:10:03.827Z,87.85
2023-01-20T09:12:30.318Z,69.63
2023-01-20T09:14:56.771Z,82.38
2023-01-20T09:17:23.386Z,75.65
2023-01-20T09:19:49.975Z,82.03
2023-01-20T09:22:16.660Z,68.30
2023-01-20T09:24:43.377Z,77.25
2023-01-20T09:27:09.823Z,77.43
2023-01-20T09:29:36.714Z,83.82
2023-01-20T09:32:03.314Z,74.45
2023-01-20T09:34:31.408Z,77.18
2023-01-20T09:37:19.181Z,76.60
2023-01-20T09:40:05.133Z,73.90
2023-01-20T09:43:07.800Z,70.65
2023-01-20T09:45:43.547Z,80.70
2023-01-20T09:48:40.796Z,65.75
2023-01-20T09:51:36.493Z,66.20
2023-01-20T09:54:16.981Z,70.40
2023-01-20T09:56:47.794Z,71.47
2023-01-20T09:59:36.136Z,102.93
2023-01-20T10:02:11.428Z,79.72
2023-01-20T10:04:46.731Z,71.95
2023-01-20T10:07:15.892Z,62.78
2023-01-20T10:09:45.211Z,67.10
2023-01-20T10:12:19.530Z,73.85
2023-01-20T10:14:55.785Z,77.30
2023-01-20T10:17:33.912Z,74.15
2023-01-20T10:20:12.749Z,71.47
2023-01-20T10:22:50.352Z,86.35
2023-01-20T10:25:52.215Z,77.30
2023-01-20T10:30:49.456Z,72.97
2023-01-20T10:33:24.144Z,65.55
2023-01-20T10:35:53.996Z,65.68
2023-01-20T10:38:38.301Z,66.05
2023-01-20T10:41:20.340Z,67.28
2023-01-20T10:43:48.112Z,74.80
2023-01-20T10:46:20.434Z,65.38
2023-01-20T10:48:55.985Z,67.88
2023-01-20T10:51:40.730Z,72.60
2023-01-20T10:54:22.881Z,62.55
2023-01-20T10:56:59.013Z,69.72
2023-01-20T10:59:31.420Z,83.60
2023-01-20T11:02:12.051Z,67.38
2023-01-20T11:04:39.158Z,73.13
2023-01-20T11:07:08.684Z,66.03
2023-01-20T11:09:38.158Z,77.65
2023-01-20T11:12:14.159Z,78.32
2023-01-20T11:14:41.383Z,77.57
2023-01-20T11:17:14.670Z,78.57
2023-01-20T11:19:55.345Z,62.78
2023-01-20T11:22:34.373Z,53.57
2023-01-20T11:25:04.078Z,69.47
2023-01-20T11:27:41.420Z,70.50
2023-01-20T11:30:23.444Z,64.15
2023-01-20T11:33:25.982Z,68.32
2023-01-20T11:36:16.801Z,66.75
2023-01-20T11:38:49.663Z,66.95
2023-01-20T11:41:21.053Z,72.38
2023-01-20T11:43:49.312Z,63.97
2023-01-20T11:46:19.544Z,59.83
2023-01-20T11:48:46.317Z,57.30
2023-01-20T11:51:18.992Z,67.30
2023-01-20T11:53:46.755Z,63.58
2023-01-20T11:56:24.678Z,63.20
2023-01-20T11:58:55.493Z,56.85
2023-01-20T12:01:30.916Z,67.75
2023-01-20T12:04:14.760Z,60.40
2023-01-20T12:06:53.901Z,62.58
2023-01-20T12:09:27.952Z,64.53
2023-01-20T12:11:57.521Z,64.78
2023-01-20T12:14:42.335Z,67.68
2023-01-20T12:17:09.012Z,74.95
2023-01-20T12:19:59.151Z,64.13
2023-01-20T12:22:58.873Z,67.70
2023-01-20T12:25:37.079Z,65.65
2023-01-20T12:28:13.349Z,54.42
2023-01-20T12:30:55.073Z,58.63
2023-01-20T12:33:24.872Z,61.75
2023-01-20T12:36:11.906Z,54.10
2023-01-20T12:39:00.371Z,63.42
2023-01-20T12:41:35.082Z,54.75
2023-01-20T12:44:36.577Z,56.67
2023-01-20T12:47:30.925Z,63.63
2023-01-20T12:49:57.416Z,55.08
2023-01-20T12:52:54.924Z,56.60
2023-01-20T12:55:45.037Z,58.67
2023-01-20T12:58:27.753Z,61.47
2023-01-20T13:01:16.843Z,55.47
2023-01-20T13:03:49.302Z,68.80
2023-01-20T13:06:42.512Z,60.70
2023-01-20T13:09:27.998Z,71.82
2023-01-20T13:12:26.055Z,74.03
2023-01-20T13:15:15.431Z,54.92
2023-01-20T13:17:47.998Z,62.67
2023-01-20T13:20:26.387Z,64.20
2023-01-20T13:22:54.679Z,65.45
2023-01-20T13:25:22.886Z,65.13
2023-01-20T13:27:51.341Z,72.80
2023-01-20T13:30:44.389Z,70.30
2023-01-20T13:33:38.877Z,62.33
2023-01-20T13:36:14.424Z,50.67
2023-01-20T13:38:41.152Z,61.47
2023-01-20T13:41:08.841Z,54.08
2023-01-20T13:43:43.976Z,52.45
2023-01-20T13:46:15.108Z,53.83
2023-01-20T13:49:33.399Z,70.03
2023-01-20T13:51:59.962Z,53.10
2023-01-20T13:54:28.946Z,51.78
2023-01-20T13:57:28.118Z,59.08
2023-01-20T13:59:55.925Z,43.35
2023-01-20T14:02:28.691Z,49.17
2023-01-20T14:04:55.721Z,47.88
2023-01-20T14:07:23.785Z,46.80
2023-01-20T14:09:55.705Z,58.15
2023-01-20T14:12:22.323Z,45.83
2023-01-20T14:14:50.221Z,47.40
2023-01-20T14:17:23.283Z,53.47
2023-01-20T14:19:52.600Z,46.67
2023-01-20T14:22:23.690Z,59.50
2023-01-20T14:24:59.909Z,48.28
2023-01-20T14:27:31.867Z,60.70
2023-01-20T14:30:17.023Z,48.78
2023-01-20T14:32:43.879Z,55.05
2023-01-20T14:35:17.147Z,56.75
2023-01-20T14:37:48.378Z,60.05
2023-01-20T14:40:15.122Z,67.43
2023-01-20T14:42:42.135Z,62.47
2023-01-20T14:45:23.571Z,58.10
2023-01-20T14:47:52.478Z,57.33
2023-01-20T14:50:20.098Z,52.80
2023-01-20T14:52:47.397Z,49.90
2023-01-20T14:55:58.454Z,65.53
2023-01-20T14:58:25.083Z,46.17
2023-01-20T15:00:54.931Z,57.60
2023-01-20T15:03:28.255Z,56.83
2023-01-20T15:06:00.583Z,58.88
2023-01-20T15:08:56.773Z,63.63
2023-01-20T15:11:28.354Z,62.97
2023-01-20T15:13:54.806Z,69.53
2023-01-20T15:16:43.986Z,53.83
2023-01-20T15:19:13.170Z,60.55
2023-01-20T15:22:00.780Z,72.03
2023-01-20T15:24:32.719Z,58.08
2023-01-20T15:27:01.678Z,79.05
2023-01-20T15:29:35.562Z,68.30
2023-01-20T15:32:10.337Z,83.80
2023-01-20T15:34:36.799Z,76.30
2023-01-20T15:37:14.202Z,63.97
2023-01-20T15:39:40.657Z,80.03
2023-01-20T15:42:11.598Z,68.75
2023-01-20T15:44:38.111Z,47.35
2023-01-20T15:47:31.323Z,76.93
2023-01-20T15:49:58.321Z,87.78
2023-01-20T15:52:24.928Z,91.70
2023-01-20T15:54:51.372Z,75.20
2023-01-20T15:57:18.199Z,75.75
2023-01-20T15:59:46.093Z,83.50
2023-01-20T16:02:20.948Z,74.30
2023-01-20T16:04:47.509Z,63.38
2023-01-20T16:07:19.538Z,85.18
2023-01-20T16:09:47.236Z,80.28
2023-01-20T16:12:18.602Z,71.25
2023-01-20T16:14:45.684Z,67.00
2023-01-20T16:17:23.349Z,73.35
2023-01-20T16:19:50.421Z,66.97
2023-01-20T16:22:17.221Z,62.72
2023-01-20T16:24:44.065Z,69.88
2023-01-20T16:27:19.819Z,73.03
2023-01-20T16:29:46.433Z,66.75
2023-01-20T16:32:15.228Z,69.55
2023-01-20T16:34:44.238Z,80.22
2023-01-20T16:37:13.632Z,73.63
2023-01-20T16:39:40.136Z,72.47
2023-01-20T16:42:06.693Z,72.20
2023-01-20T16:44:33.291Z,66.85
2023-01-20T16:47:00.234Z,70.60
2023-01-20T16:49:26.789Z,74.40
2023-01-20T16:51:53.352Z,78.45
2023-01-20T16:54:19.846Z,82.50
2023-01-20T16:56:46.356Z,77.35
2023-01-20T16:59:13.172Z,77.38
2023-01-20T17:01:40.311Z,75.47
2023-01-20T17:04:06.749Z,77.85
2023-01-20T17:06:34.615Z,75.90
2023-01-20T17:09:03.784Z,72.50
2023-01-20T17:11:32.857Z,69.10
2023-01-20T17:14:02.062Z,73.45
2023-01-20T17:16:29.095Z,74.72
2023-01-20T17:18:58.445Z,65.97
2023-01-20T17:21:27.451Z,84.47
2023-01-20T17:23:56.911Z,94.07
2023-01-20T17:26:24.448Z,86.22
2023-01-20T17:29:10.315Z,79.95
2023-01-20T17:31:37.192Z,87.72
2023-01-20T17:34:05.225Z,85.78
2023-01-20T17:36:34.547Z,89.75
2023-01-20T17:39:02.749Z,87.30
2023-01-20T17:41:29.359Z,92.05
2023-01-20T17:43:55.818Z,92.22
2023-01-20T17:46:28.066Z,88.85
2023-01-20T17:48:59.105Z,91.88
2023-01-20T17:51:28.026Z,88.55
2023-01-20T17:53:55.033Z,85.35
2023-01-20T17:56:22.642Z,90.30
2023-01-20T17:58:49.643Z,85.15
2023-01-20T18:01:17.507Z,87.53
2023-01-20T18:03:45.190Z,92.63
2023-01-20T18:06:13.857Z,79.30
2023-01-20T18:08:40.679Z,78.63
2023-01-20T18:11:15.019Z,73.43
2023-01-20T18:13:44.748Z,80.18
2023-01-20T18:16:13.709Z,84.72
2023-01-20T18:18:41.542Z,81.25
2023-01-20T18:21:22.460Z,86.80
2023-01-20T18:23:50.170Z,71.13
2023-01-20T18:26:21.443Z,80.85
2023-01-20T18:28:48.331Z,81.85
2023-01-20T18:31:18.724Z,83.97
2023-01-20T18:33:48.756Z,71.68
2023-01-20T18:36:25.901Z,79.45
2023-01-20T18:38:54.898Z,69.47
2023-01-20T18:41:21.874Z,68.47
2023-01-20T18:43:49.148Z,68.75
2023-01-20T18:46:16.419Z,66.22
2023-01-20T18:48:47.380Z,70.80
2023-01-20T18:51:15.854Z,71.47
2023-01-20T18:53:44.281Z,78.75
2023-01-20T18:56:13.114Z,64.88
2023-01-20T18:58:42.984Z,71.00
2023-01-20T19:01:12.190Z,74.90
2023-01-20T19:03:39.559Z,74.15
2023-01-20T19:06:08.475Z,81.68
2023-01-20T19:08:34.915Z,70.10
2023-01-20T19:11:02.310Z,70.43
2023-01-20T19:13:29.225Z,72.50
2023-01-20T19:15:56.126Z,81.97
2023-01-20T19:18:22.736Z,69.90
2023-01-20T19:20:49.175Z,70.13
2023-01-20T19:23:15.666Z,77.13
2023-01-20T19:25:42.177Z,75.10
2023-01-20T19:28:09.612Z,73.47
2023-01-20T19:30:36.387Z,74.65
2023-01-20T19:33:02.900Z,77.93
2023-01-20T19:35:31.562Z,68.07
2023-01-20T19:37:58.183Z,71.50
2023-01-20T19:40:24.747Z,79.53
2023-01-20T19:42:52.560Z,74.53
2023-01-20T19:45:19.149Z,75.45
2023-01-20T19:47:45.613Z,71.05
2023-01-20T19:50:12.196Z,64.93
2023-01-20T19:52:38.604Z,64.95
2023-01-20T19:55:05.637Z,69.38
2023-01-20T19:57:32.191Z,61.30
2023-01-20T19:59:58.914Z,65.90
2023-01-20T20:02:27.472Z,68.10
2023-01-20T20:04:53.993Z,65.20
2023-01-20T20:07:20.640Z,63.85
2023-01-20T20:09:47.097Z,69.35
2023-01-20T20:12:13.678Z,65.50
2023-01-20T20:14:40.249Z,56.22
2023-01-20T20:17:06.708Z,65.35
2023-01-20T20:19:33.171Z,63.47
2023-01-20T20:21:59.566Z,64.75
2023-01-20T20:24:25.992Z,65.35
2023-01-20T20:26:52.447Z,64.88
2023-01-20T20:29:19.493Z,75.30
2023-01-20T20:31:46.857Z,60.75
2023-01-20T20:34:16.803Z,59.13
2023-01-20T20:36:43.516Z,63.47
2023-01-20T20:39:13.654Z,63.90
2023-01-20T20:41:40.210Z,50.20
2023-01-20T20:44:06.972Z,56.70
2023-01-20T20:46:33.579Z,58.22
2023-01-20T20:49:01.137Z,67.80
2023-01-20T20:51:32.998Z,59.50
2023-01-20T20:54:01.503Z,56.42
2023-01-20T20:56:31.614Z,67.63
2023-01-20T20:59:02.247Z,58.80
2023-01-20T21:01:31.400Z,63.65
2023-01-20T21:04:00.186Z,57.65
2023-01-20T21:06:26.674Z,63.63
2023-01-20T21:08:53.172Z,64.43
2023-01-20T21:11:22.294Z,59.97
2023-01-20T21:13:51.396Z,59.70
2023-01-20T21:16:21.939Z,53.35
2023-01-20T21:18:49.559Z,63.20
2023-01-20T21:21:19.546Z,58.85
2023-01-20T21:23:51.436Z,59.85
2023-01-20T21:26:18.006Z,58.13
2023-01-20T21:28:44.633Z,67.15
2023-01-20T21:31:14.353Z,61.40
2023-01-20T21:33:42.413Z,61.40
2023-01-20T21:36:12.393Z,56.47
2023-01-20T21:38:41.522Z,51.33
2023-01-20T21:41:09.974Z,49.40
2023-01-20T21:44:00.849Z,54.42
2023-01-20T21:46:29.593Z,57.20
2023-01-20T21:49:14.514Z,60.58
2023-01-20T21:51:59.925Z,58.70
2023-01-20T21:54:30.372Z,50.05
2023-01-20T21:56:57.635Z,51.45
2023-01-20T21:59:24.105Z,50.78
2023-01-20T22:01:51.503Z,50.88
2023-01-20T22:04:18.753Z,47.47
2023-01-20T22:06:45.278Z,50.03
2023-01-20T22:09:12.422Z,52.65
2023-01-20T22:11:38.937Z,56.22
2023-01-20T22:14:05.546Z,44.25
2023-01-20T22:16:32.373Z,52.00
2023-01-20T22:18:58.876Z,43.88
2023-01-20T22:21:25.581Z,48.78
2023-01-20T22:23:52.340Z,42.78
2023-01-20T22:26:19.267Z,40.58
2023-01-20T22:28:45.735Z,43.45
2023-01-20T22:31:19.954Z,45.95
2023-01-20T22:33:51.576Z,45.13
2023-01-20T22:36:18.720Z,42.30
2023-01-20T22:38:46.201Z,44.85
2023-01-20T22:41:12.756Z,46.58
2023-01-20T22:43:41.168Z,38.45
2023-01-20T22:46:07.687Z,45.65
2023-01-20T22:48:34.535Z,39.33
2023-01-20T22:51:09.786Z,40.97
2023-01-20T22:53:37.134Z,36.70
2023-01-20T22:56:10.067Z,48.47
2023-01-20T22:58:37.303Z,41.63
2023-01-20T23:01:05.255Z,38.53
2023-01-20T23:03:31.855Z,43.88
2023-01-20T23:05:59.919Z,38.25
2023-01-20T23:08:28.317Z,34.55
2023-01-20T23:10:56.526Z,33.67
2023-01-20T23:13:23.262Z,37.60
2023-01-20T23:15:51.060Z,40.60
2023-01-20T23:18:18.836Z,45.25
2023-01-20T23:20:52.497Z,38.08
2023-01-20T23:23:20.537Z,37.67
2023-01-20T23:25:47.837Z,35.22
2023-01-20T23:28:15.145Z,38.28
2023-01-20T23:30:42.198Z,32.50
2023-01-20T23:33:10.582Z,33.75
2023-01-20T23:35:39.026Z,37.45
2023-01-20T23:38:06.878Z,40.15
2023-01-20T23:40:34.173Z,39.95
2023-01-20T23:43:00.886Z,47.85
2023-01-20T23:45:28.782Z,37.53
2023-01-20T23:47:55.521Z,43.00
2023-01-20T23:50:22.000Z,36.08
2023-01-20T23:52:48.429Z,35.38
2023-01-20T23:55:14.856Z,37.80
2023-01-20T23:57:41.336Z,35.28
